Gettysburg, SD (57442)

9:15 PM CDT on September 24, 2016 (GMT -0500)
NonFedAWOS | | Change Station
Active Advisory: Wind Advisory

Elev 1874 ft 44.70 °N, 100.10 °W | Updated 40 minutes ago

Clear
Clear
61 °F
Feels Like 61 °F
N
14
Wind Variable Wind from WSW
Gusts 22.0 mph

Today
High -- | Low -- °F
--% Chance of Precip.
Yesterday
High -- | Low -- °F
Precip. -- in
Pressure 29.79 in
Visibility 10.0 miles
Clouds Clear
Dew Point 48 °F
Humidity 63%
Rainfall in
Snow Depth Not available.
7:30 AM 7:32 PM
Waning Crescent, 32% visible
METAR KMBG 250152Z AUTO 24011G25KT 10SM CLR 16/08 A2980 RMK AO2 WSHFT 0045 SLP087 T01560078
Pressure 29.79 in
Visibility 10.0 miles
Clouds Clear
Dew Point 48 °F
Humidity 63%
Rainfall in
Snow Depth Not available.
7:30 AM 7:32 PM
Waning Crescent, 32% visible
METAR KMBG 250152Z AUTO 24011G25KT 10SM CLR 16/08 A2980 RMK AO2 WSHFT 0045 SLP087 T01560078

10-Day Weather Forecast

Almanac

Astronomy

Sep. 24, 2016 Rise Set
Actual Time
Civil Twilight
Nautical Twilight
Astronomical Twilight
Moon
Length of Visible Light
Length of Day
Tomorrow will be .
, % of the Moon is Illuminated

Today's Extremes

State Highs State Lows

Community

WunderPhotos

Upload Photos

1,941,526 photos uploaded!

WunderBlog® & News

Nearby

Air Quality

  Air Quality AQ Index Pollutant
Not available.

Snow Depth

Station Depth Elevation

Earthquake Activity

City Distance Mag. Time & Date
Minimum magnitude displayed is 2.5.

Coastal Water Temperatures

Place Temperature

Stations

Nearby Weather Stations

Station Location Temp. Windchill Dew Point Humidity Wind Precip. Elev Updated Type
                   

Watches & Warnings

Wind Advisory
Issued: 7:45 PM MDT Sep. 24, 2016 – National Weather Service

... Wind Advisory remains in effect from 1 am CDT /midnight MDT/
to 7 PM CDT /6 PM MDT/ Sunday...

* timing... strong northwest winds developing tonight and
continuing into Sunday afternoon.

* Winds... northwest 25 to 40 mph with gusts around 50 mph.

* Impacts... difficulty for those driving high profile vehicles.
Added dangers for those working outdoors on elevated surfaces.

Precautionary/preparedness actions...

A Wind Advisory means that sustained winds of 30 mph or higher
are expected. Winds this strong can make driving difficult...
especially for high profile vehicles. Use extra caution.



Mohr